Time;durP1;ratioP1;P1;durP2;ratioP2;P2;SDS_P1;SDS_P2;PMS_P1;PMS_P2;Temp;Humidity;BMP_temperature;BMP_pressure;BME280_temperature;BME280_humidity;BME280_pressure;Samples;Min_cycle;Max_cycle;Signal;HPM_P1;HPM_P2
2021/06/12 00:00:29;;;;;;;14.43;5.22;;;16.10;70.10;;;;;;4807694;29;20070;-69
2021/06/12 00:02:58;;;;;;;9.63;4.80;;;16.10;70.30;;;;;;4842087;29;20047;-71
2021/06/12 00:05:26;;;;;;;9.15;4.90;;;16.00;70.40;;;;;;4817940;29;20057;-68
2021/06/12 00:07:54;;;;;;;10.98;5.10;;;16.00;70.60;;;;;;4806863;29;20051;-73
2021/06/12 00:10:32;;;;;;;13.13;5.65;;;16.00;70.70;;;;;;4807125;29;20066;-70
2021/06/12 00:13:01;;;;;;;11.43;5.85;;;16.00;70.90;;;;;;4807412;29;20454;-71
2021/06/12 00:15:29;;;;;;;11.65;5.45;;;16.00;71.00;;;;;;4810005;29;20055;-72
2021/06/12 00:17:58;;;;;;;12.52;5.55;;;16.00;71.20;;;;;;4825253;29;20062;-68
2021/06/12 00:20:29;;;;;;;11.93;5.65;;;16.00;71.30;;;;;;4828216;29;20054;-72
2021/06/12 00:22:57;;;;;;;11.50;5.43;;;16.00;71.30;;;;;;4841608;29;20047;-70
2021/06/12 00:25:27;;;;;;;10.90;5.85;;;16.00;71.40;;;;;;4826682;29;20070;-73
2021/06/12 00:28:01;;;;;;;9.48;5.32;;;16.00;71.30;;;;;;4814652;29;20065;-71
2021/06/12 00:30:30;;;;;;;15.60;6.60;;;15.90;71.40;;;;;;4811776;29;20066;-72
2021/06/12 00:33:15;;;;;;;8.50;6.57;;;16.00;71.50;;;;;;4813740;29;20054;-71
2021/06/12 00:35:44;;;;;;;11.90;6.40;;;15.90;71.70;;;;;;4823396;29;20081;-70
2021/06/12 00:38:14;;;;;;;9.70;5.55;;;15.80;71.90;;;;;;4823905;29;20050;-74
2021/06/12 00:40:42;;;;;;;14.57;6.07;;;15.80;72.00;;;;;;4814499;29;20051;-70
2021/06/12 00:43:10;;;;;;;10.70;5.93;;;15.80;72.20;;;;;;4811054;29;20071;-71
2021/06/12 00:45:39;;;;;;;11.13;6.30;;;15.70;72.40;;;;;;4828091;29;20058;-71
2021/06/12 00:48:07;;;;;;;12.45;6.35;;;15.70;72.70;;;;;;4821004;29;20070;-70
2021/06/12 00:50:35;;;;;;;10.55;6.60;;;15.70;72.90;;;;;;4839400;29;20058;-74
2021/06/12 00:53:06;;;;;;;9.88;5.80;;;15.60;73.10;;;;;;4810200;29;20063;-73
2021/06/12 00:55:36;;;;;;;11.55;6.20;;;15.60;73.20;;;;;;4822964;29;20054;-72
2021/06/12 00:58:08;;;;;;;10.40;5.85;;;15.50;73.40;;;;;;4809976;29;20065;-71
2021/06/12 01:00:37;;;;;;;10.70;6.03;;;15.50;73.60;;;;;;4809744;29;20069;-69
2021/06/12 01:03:06;;;;;;;12.38;6.70;;;15.50;73.60;;;;;;4808765;29;20299;-73
2021/06/12 01:05:34;;;;;;;9.13;6.35;;;15.50;73.80;;;;;;4810953;29;20055;-73
2021/06/12 01:08:04;;;;;;;13.15;6.35;;;15.50;73.90;;;;;;4809021;29;20050;-70
2021/06/12 01:10:35;;;;;;;13.18;6.60;;;15.50;74.00;;;;;;4816052;29;20386;-69
2021/06/12 01:13:18;;;;;;;9.85;6.35;;;15.40;74.10;;;;;;4809975;29;20058;-74
2021/06/12 01:15:56;;;;;;;;;;;15.40;74.30;;;;;;4827668;29;20066;-73
2021/06/12 01:18:29;;;;;;;14.02;6.63;;;15.30;74.30;;;;;;4791584;29;19936;-73
2021/06/12 01:21:12;;;;;;;12.68;6.45;;;15.30;74.20;;;;;;4795545;29;20060;-72
2021/06/12 01:24:24;;;;;;;10.40;6.03;;;15.30;74.40;;;;;;4806015;29;20059;-70
2021/06/12 01:27:13;;;;;;;13.75;6.80;;;15.30;74.60;;;;;;4791311;29;20626;-73
2021/06/12 01:30:08;;;;;;;16.25;6.93;;;15.30;74.70;;;;;;4789465;30;20067;-73
2021/06/12 01:32:40;;;;;;;15.00;7.65;;;15.30;74.90;;;;;;4814107;29;20062;-73
2021/06/12 01:35:23;;;;;;;13.30;7.03;;;15.30;74.80;;;;;;4812301;29;20062;-70
2021/06/12 01:37:53;;;;;;;11.93;6.90;;;15.20;74.90;;;;;;4809763;29;20466;-70
2021/06/12 01:40:26;;;;;;;10.63;5.93;;;15.20;74.90;;;;;;4808386;29;20299;-70
2021/06/12 01:42:54;;;;;;;11.77;6.57;;;15.20;75.00;;;;;;4808662;29;20497;-73
2021/06/12 01:45:24;;;;;;;12.70;6.43;;;15.10;75.10;;;;;;4811541;29;20513;-71
2021/06/12 01:47:54;;;;;;;14.15;7.00;;;15.10;75.10;;;;;;4811283;29;20474;-72
2021/06/12 01:50:24;;;;;;;15.05;6.68;;;15.20;75.10;;;;;;4809208;29;20059;-72
2021/06/12 01:52:55;;;;;;;17.65;7.18;;;15.10;75.20;;;;;;4813023;29;20073;-72
2021/06/12 01:55:26;;;;;;;16.02;7.20;;;15.10;75.30;;;;;;4830482;29;20470;-70
2021/06/12 01:57:54;;;;;;;15.20;7.30;;;15.10;75.30;;;;;;4827208;29;20058;-73
2021/06/12 02:00:24;;;;;;;14.60;6.97;;;15.00;75.40;;;;;;4826770;29;20061;-70
2021/06/12 02:02:53;;;;;;;17.88;7.50;;;15.00;75.40;;;;;;4825918;29;20397;-72
2021/06/12 02:05:23;;;;;;;17.27;7.82;;;15.00;75.60;;;;;;4826796;29;20047;-73
2021/06/12 02:07:53;;;;;;;17.58;7.22;;;15.00;75.60;;;;;;4826410;29;20069;-70
2021/06/12 02:10:26;;;;;;;17.42;6.88;;;14.90;75.70;;;;;;4809868;29;20069;-73
2021/06/12 02:12:55;;;;;;;17.48;7.47;;;14.90;75.80;;;;;;4808925;29;20069;-73
2021/06/12 02:15:26;;;;;;;19.05;7.00;;;14.90;75.80;;;;;;4810594;29;20474;-71
2021/06/12 02:17:59;;;;;;;18.42;7.57;;;14.90;75.90;;;;;;4822036;29;20069;-73
2021/06/12 02:20:28;;;;;;;18.17;7.60;;;14.90;75.90;;;;;;4820267;29;20058;-71
2021/06/12 02:22:56;;;;;;;19.48;7.93;;;14.80;76.00;;;;;;4807186;29;20055;-70
2021/06/12 02:25:25;;;;;;;22.17;7.82;;;14.80;76.00;;;;;;4808926;29;20059;-69
2021/06/12 02:28:00;;;;;;;18.17;7.60;;;14.80;76.10;;;;;;4840205;29;20065;-74
2021/06/12 02:30:32;;;;;;;19.58;7.60;;;14.80;76.20;;;;;;4790352;29;20478;-70
2021/06/12 02:33:03;;;;;;;18.60;7.30;;;14.80;76.10;;;;;;4789945;29;20074;-72
2021/06/12 02:35:33;;;;;;;18.27;7.60;;;14.80;76.10;;;;;;4789549;29;20493;-71
2021/06/12 02:38:00;;;;;;;20.52;7.72;;;14.80;76.10;;;;;;4807046;29;20065;-73
2021/06/12 02:40:29;;;;;;;23.90;8.20;;;14.80;76.10;;;;;;4847478;29;20461;-73
2021/06/12 02:42:57;;;;;;;18.42;7.82;;;14.80;76.20;;;;;;4823906;29;20054;-73
2021/06/12 02:45:26;;;;;;;12.00;6.60;;;14.70;76.20;;;;;;4826154;29;20089;-74
2021/06/12 02:47:58;;;;;;;16.88;8.13;;;14.70;76.30;;;;;;4821417;29;20059;-72
2021/06/12 02:50:31;;;;;;;17.33;8.15;;;14.70;76.30;;;;;;4808408;29;20055;-72
2021/06/12 02:53:05;;;;;;;20.88;7.93;;;14.60;76.30;;;;;;4808499;29;20066;-72
2021/06/12 02:55:43;;;;;;;19.42;8.23;;;14.70;76.40;;;;;;4821453;29;20065;-70
2021/06/12 02:58:14;;;;;;;18.60;8.02;;;14.60;76.40;;;;;;4823553;29;20062;-75
2021/06/12 03:00:44;;;;;;;20.85;8.15;;;14.60;76.40;;;;;;4826465;29;20077;-73
2021/06/12 03:03:14;;;;;;;20.70;8.88;;;14.60;76.40;;;;;;4838899;29;20055;-73
2021/06/12 03:05:56;;;;;;;22.23;8.68;;;14.60;76.50;;;;;;4811731;29;20055;-73
2021/06/12 03:08:45;;;;;;;21.55;8.23;;;14.50;76.60;;;;;;4827108;29;20054;-72
2021/06/12 03:11:16;;;;;;;18.95;7.47;;;14.40;76.70;;;;;;4821571;29;20058;-69
2021/06/12 03:13:45;;;;;;;18.38;8.15;;;14.50;76.60;;;;;;4837047;29;20059;-74
2021/06/12 03:16:16;;;;;;;20.13;8.18;;;14.40;76.60;;;;;;4807157;29;20073;-74
2021/06/12 03:18:46;;;;;;;22.13;8.13;;;14.40;76.60;;;;;;4812925;29;20430;-72
2021/06/12 03:21:22;;;;;;;19.58;7.57;;;14.40;76.60;;;;;;4805820;29;20375;-70
2021/06/12 03:23:56;;;;;;;13.55;7.30;;;14.40;76.60;;;;;;4821787;29;20062;-73
2021/06/12 03:26:24;;;;;;;;;;;14.30;76.60;;;;;;4811908;29;20058;-74
2021/06/12 03:28:52;;;;;;;17.80;7.65;;;14.30;76.60;;;;;;4827033;29;19925;-70
2021/06/12 03:31:21;;;;;;;17.30;7.20;;;14.30;76.50;;;;;;4817368;29;20477;-71
2021/06/12 03:33:50;;;;;;;22.40;7.97;;;14.30;76.50;;;;;;4807228;29;20067;-72
2021/06/12 03:36:19;;;;;;;17.70;8.20;;;14.30;76.50;;;;;;4806649;29;20070;-70
2021/06/12 03:38:48;;;;;;;18.70;7.65;;;14.30;76.50;;;;;;4810096;29;20468;-71
2021/06/12 03:41:17;;;;;;;17.95;7.13;;;14.30;76.60;;;;;;4816958;29;20050;-72
2021/06/12 03:43:48;;;;;;;18.42;7.22;;;14.20;76.60;;;;;;4830984;29;20377;-70
2021/06/12 03:46:18;;;;;;;19.60;7.38;;;14.20;76.60;;;;;;4826157;29;20055;-73
2021/06/12 03:48:49;;;;;;;13.75;6.82;;;14.20;76.60;;;;;;4824418;29;20393;-73
2021/06/12 03:51:18;;;;;;;19.77;7.38;;;14.20;76.60;;;;;;4825557;29;20063;-71
2021/06/12 03:53:47;;;;;;;17.58;6.82;;;14.20;76.50;;;;;;4840135;29;20050;-72
2021/06/12 03:56:17;;;;;;;26.95;7.10;;;14.20;76.50;;;;;;4826418;29;20054;-71
2021/06/12 03:58:48;;;;;;;15.30;7.10;;;14.20;76.50;;;;;;4818304;29;20073;-70
2021/06/12 04:01:18;;;;;;;16.65;7.00;;;14.20;76.50;;;;;;4812251;29;20055;-74
2021/06/12 04:03:46;;;;;;;14.57;6.60;;;14.20;76.50;;;;;;4824033;29;20062;-71
2021/06/12 04:06:14;;;;;;;18.77;7.22;;;14.10;76.40;;;;;;4810995;29;20066;-71
2021/06/12 04:08:43;;;;;;;13.27;6.47;;;14.10;76.40;;;;;;4823968;29;20137;-73
2021/06/12 04:11:11;;;;;;;13.73;6.22;;;14.20;76.30;;;;;;4813211;29;20054;-72
2021/06/12 04:13:38;;;;;;;13.63;6.03;;;14.20;76.10;;;;;;4809745;29;20054;-71
2021/06/12 04:16:08;;;;;;;13.15;6.20;;;14.20;76.00;;;;;;4808717;29;20059;-73
2021/06/12 04:18:39;;;;;;;11.43;6.13;;;14.20;76.00;;;;;;4809894;29;20055;-70
2021/06/12 04:21:08;;;;;;;14.18;5.50;;;14.30;75.90;;;;;;4822823;29;20059;-71
2021/06/12 04:23:36;;;;;;;13.75;5.85;;;14.30;75.70;;;;;;4809694;29;20061;-72
2021/06/12 04:26:03;;;;;;;10.68;5.22;;;14.30;75.70;;;;;;4809829;29;20568;-70
2021/06/12 04:28:31;;;;;;;11.95;5.25;;;14.30;75.60;;;;;;4809252;29;20062;-72
2021/06/12 04:30:59;;;;;;;14.65;5.68;;;14.30;75.60;;;;;;4824828;29;20066;-70
2021/06/12 04:33:27;;;;;;;13.55;5.25;;;14.30;75.50;;;;;;4810243;29;20075;-72
2021/06/12 04:35:56;;;;;;;13.35;5.47;;;14.30;75.40;;;;;;4809086;29;20047;-74
2021/06/12 04:38:24;;;;;;;11.15;5.30;;;14.30;75.40;;;;;;4810223;29;20063;-73
2021/06/12 04:40:52;;;;;;;11.48;5.43;;;14.30;75.30;;;;;;4810075;29;20062;-71
2021/06/12 04:43:20;;;;;;;14.85;5.88;;;14.30;75.20;;;;;;4809131;29;20478;-73
2021/06/12 04:45:48;;;;;;;12.57;5.88;;;14.30;75.30;;;;;;4809300;29;20050;-73
2021/06/12 04:48:16;;;;;;;14.13;5.80;;;14.30;75.30;;;;;;4808034;29;20066;-73
2021/06/12 04:50:44;;;;;;;9.82;5.10;;;14.40;75.30;;;;;;4809871;29;20363;-70
2021/06/12 04:53:12;;;;;;;13.80;6.20;;;14.30;75.30;;;;;;4809718;29;20390;-73
2021/06/12 04:55:41;;;;;;;11.93;6.57;;;14.30;75.30;;;;;;4808740;29;20063;-73
2021/06/12 04:58:10;;;;;;;14.40;6.25;;;14.30;75.40;;;;;;4809273;29;20070;-72
2021/06/12 05:00:39;;;;;;;12.32;6.03;;;14.30;75.50;;;;;;4809528;29;20063;-73
2021/06/12 05:03:16;;;;;;;11.82;4.90;;;14.30;75.60;;;;;;4808514;29;20065;-73
2021/06/12 05:05:44;;;;;;;12.80;6.22;;;14.30;75.60;;;;;;4808313;29;20355;-70
2021/06/12 05:08:13;;;;;;;14.80;6.35;;;14.20;75.70;;;;;;4808673;29;20382;-70
2021/06/12 05:10:41;;;;;;;12.80;5.35;;;14.20;75.80;;;;;;4809363;29;20065;-71
2021/06/12 05:13:09;;;;;;;12.98;6.00;;;14.10;75.90;;;;;;4809381;29;20073;-72
2021/06/12 05:15:37;;;;;;;9.68;5.70;;;14.10;76.00;;;;;;4807840;29;20062;-72
2021/06/12 05:18:06;;;;;;;11.82;5.10;;;14.10;76.00;;;;;;4808927;29;20055;-72
2021/06/12 05:20:36;;;;;;;11.80;5.60;;;14.10;76.00;;;;;;4825147;29;20058;-74
2021/06/12 05:23:05;;;;;;;12.48;5.68;;;14.10;76.00;;;;;;4814475;29;20070;-73
2021/06/12 05:25:34;;;;;;;11.75;5.40;;;14.20;76.10;;;;;;4809160;29;20063;-72
2021/06/12 05:28:03;;;;;;;11.38;5.15;;;14.10;76.20;;;;;;4822279;29;20085;-73
2021/06/12 05:30:31;;;;;;;14.05;5.38;;;14.10;76.20;;;;;;4838089;29;20497;-69
2021/06/12 05:32:59;;;;;;;15.90;5.50;;;14.10;76.30;;;;;;4808930;29;20059;-73
2021/06/12 05:35:28;;;;;;;15.40;5.68;;;14.20;76.40;;;;;;4808491;29;20084;-71
2021/06/12 05:37:56;;;;;;;12.63;5.13;;;14.20;76.50;;;;;;4809017;29;20055;-72
2021/06/12 05:40:24;;;;;;;10.68;5.00;;;14.20;76.60;;;;;;4808997;29;20059;-71
2021/06/12 05:42:52;;;;;;;14.98;5.43;;;14.20;76.70;;;;;;4808032;29;20051;-70
2021/06/12 05:45:21;;;;;;;16.95;5.43;;;14.30;76.70;;;;;;4820298;29;20059;-72
2021/06/12 05:47:49;;;;;;;10.40;5.47;;;14.20;76.80;;;;;;4807418;29;20055;-71
2021/06/12 05:50:17;;;;;;;14.48;5.55;;;14.30;76.80;;;;;;4808762;29;20495;-73
2021/06/12 05:52:45;;;;;;;13.52;5.10;;;14.30;77.00;;;;;;4808536;29;20062;-71
2021/06/12 05:55:17;;;;;;;11.30;5.38;;;14.30;77.10;;;;;;4808204;29;20058;-72
2021/06/12 05:57:45;;;;;;;12.23;5.15;;;14.30;77.20;;;;;;4807541;29;20062;-74
2021/06/12 06:00:15;;;;;;;10.27;4.90;;;14.30;77.20;;;;;;4808538;29;20070;-73
2021/06/12 06:02:44;;;;;;;9.95;5.30;;;14.40;77.30;;;;;;4821720;29;20359;-73
2021/06/12 06:05:13;;;;;;;14.90;5.38;;;14.40;77.30;;;;;;4811844;29;20051;-73
2021/06/12 06:07:41;;;;;;;12.05;5.22;;;14.40;77.40;;;;;;4809602;29;20055;-74
2021/06/12 06:10:09;;;;;;;12.05;4.70;;;14.50;77.40;;;;;;4821946;29;20061;-73
2021/06/12 06:12:38;;;;;;;13.05;5.18;;;14.50;77.40;;;;;;4808409;29;20059;-73
2021/06/12 06:15:09;;;;;;;12.10;4.43;;;14.50;77.40;;;;;;4807601;29;20059;-74
2021/06/12 06:17:38;;;;;;;12.27;4.40;;;14.60;77.50;;;;;;4822459;29;20070;-72
2021/06/12 06:20:08;;;;;;;15.02;4.78;;;14.60;77.40;;;;;;4807584;29;20067;-71
2021/06/12 06:22:36;;;;;;;13.10;4.40;;;14.70;77.30;;;;;;4807542;29;20047;-74
2021/06/12 06:25:06;;;;;;;10.80;4.28;;;14.70;77.20;;;;;;4807464;29;20454;-74
2021/06/12 06:27:34;;;;;;;14.82;4.85;;;14.70;77.10;;;;;;4807903;29;20059;-71
2021/06/12 06:30:06;;;;;;;11.65;4.88;;;14.80;77.10;;;;;;4807154;29;20051;-70
2021/06/12 06:32:34;;;;;;;16.73;5.13;;;14.80;77.10;;;;;;4808058;29;20066;-71
2021/06/12 06:35:03;;;;;;;14.38;5.38;;;14.90;76.90;;;;;;4807221;29;20059;-70
2021/06/12 06:37:31;;;;;;;14.10;6.57;;;14.90;76.90;;;;;;4806624;29;20058;-73
2021/06/12 06:39:59;;;;;;;10.27;5.25;;;14.90;76.70;;;;;;4807986;29;20054;-74
2021/06/12 06:42:27;;;;;;;14.27;5.35;;;14.90;76.60;;;;;;4821418;29;20070;-69
2021/06/12 06:44:55;;;;;;;9.38;4.50;;;14.90;76.60;;;;;;4836015;29;20069;-73
2021/06/12 06:47:23;;;;;;;11.32;4.35;;;14.90;76.60;;;;;;4805603;29;20046;-70
2021/06/12 06:49:51;;;;;;;12.25;4.90;;;14.90;76.60;;;;;;4807238;29;20051;-71
2021/06/12 06:52:19;;;;;;;11.10;4.80;;;14.90;76.40;;;;;;4821939;29;20114;-71
2021/06/12 06:54:47;;;;;;;13.70;5.28;;;14.90;76.50;;;;;;4806616;29;21056;-73
2021/06/12 06:57:15;;;;;;;9.73;4.60;;;14.90;76.60;;;;;;4807941;29;20065;-72
2021/06/12 06:59:43;;;;;;;10.25;4.68;;;14.90;76.60;;;;;;4837042;29;20074;-71
2021/06/12 07:02:10;;;;;;;12.23;4.30;;;15.00;76.40;;;;;;4806655;29;20466;-73
2021/06/12 07:04:39;;;;;;;13.13;4.93;;;15.00;76.30;;;;;;4806776;29;20047;-72
2021/06/12 07:07:07;;;;;;;15.27;4.32;;;15.00;76.30;;;;;;4821813;29;20051;-73
2021/06/12 07:09:35;;;;;;;9.73;3.72;;;15.00;76.30;;;;;;4805486;29;20059;-72
2021/06/12 07:12:04;;;;;;;9.52;3.47;;;15.10;76.30;;;;;;4807503;29;20047;-73
2021/06/12 07:14:32;;;;;;;17.60;3.72;;;15.20;76.20;;;;;;4807334;29;20087;-70
2021/06/12 07:17:03;;;;;;;10.63;3.55;;;15.20;76.00;;;;;;4809172;29;20058;-72
2021/06/12 07:19:33;;;;;;;14.13;4.30;;;15.30;76.00;;;;;;4808332;29;20067;-72
2021/06/12 07:22:01;;;;;;;10.23;3.95;;;15.30;75.90;;;;;;4806582;29;20059;-71
2021/06/12 07:24:33;;;;;;;9.63;4.35;;;15.30;75.80;;;;;;4821588;29;20051;-75
2021/06/12 07:27:01;;;;;;;13.18;4.43;;;15.30;75.80;;;;;;4822460;29;20071;-73
2021/06/12 07:29:29;;;;;;;10.75;3.95;;;15.30;75.60;;;;;;4807713;29;20065;-72
2021/06/12 07:31:57;;;;;;;10.95;4.00;;;15.40;75.40;;;;;;4811191;29;20061;-70
2021/06/12 07:34:25;;;;;;;9.85;4.03;;;15.40;75.00;;;;;;4811189;29;20366;-73
2021/06/12 07:36:54;;;;;;;9.35;3.95;;;15.50;74.60;;;;;;4810836;29;20394;-71
2021/06/12 07:39:22;;;;;;;15.02;4.30;;;15.50;74.30;;;;;;4811017;29;20066;-71
2021/06/12 07:41:50;;;;;;;13.70;4.45;;;15.60;74.10;;;;;;4839610;29;20051;-74
2021/06/12 07:44:18;;;;;;;11.38;4.07;;;15.60;73.90;;;;;;4825247;29;20062;-75
2021/06/12 07:46:46;;;;;;;7.03;3.72;;;15.60;73.80;;;;;;4810938;29;20054;-75
2021/06/12 07:49:15;;;;;;;10.43;4.75;;;15.60;73.70;;;;;;4809485;29;20059;-73
2021/06/12 07:51:44;;;;;;;13.73;4.80;;;15.70;73.50;;;;;;4825655;29;20054;-70
2021/06/12 07:54:12;;;;;;;12.00;5.50;;;15.70;73.30;;;;;;4810211;29;20391;-74
2021/06/12 07:56:40;;;;;;;11.77;5.63;;;15.80;73.00;;;;;;4839344;29;20383;-73
2021/06/12 07:59:08;;;;;;;11.07;5.63;;;15.80;72.60;;;;;;4824917;29;20066;-74
2021/06/12 08:01:38;;;;;;;9.45;5.05;;;15.80;72.30;;;;;;4823681;29;20066;-71
2021/06/12 08:04:06;;;;;;;11.93;5.15;;;15.90;72.10;;;;;;4810765;29;20067;-75
2021/06/12 08:06:34;;;;;;;11.63;4.70;;;16.00;72.00;;;;;;4809603;29;20058;-74
2021/06/12 08:09:03;;;;;;;12.15;4.97;;;16.00;71.80;;;;;;4809944;29;20058;-71
2021/06/12 08:11:31;;;;;;;10.43;4.05;;;16.00;71.40;;;;;;4807639;29;20070;-72
2021/06/12 08:14:00;;;;;;;7.07;3.47;;;16.00;70.90;;;;;;4811498;29;20051;-73
2021/06/12 08:16:28;;;;;;;8.73;3.65;;;16.10;70.20;;;;;;4808568;29;20051;-75
2021/06/12 08:18:56;;;;;;;8.00;3.40;;;16.10;69.80;;;;;;4810707;29;20520;-72
2021/06/12 08:21:25;;;;;;;6.97;3.53;;;16.10;69.70;;;;;;4813216;29;20073;-72
2021/06/12 08:23:52;;;;;;;12.57;3.55;;;16.20;69.70;;;;;;4838535;29;20067;-71
2021/06/12 08:26:20;;;;;;;6.18;2.85;;;16.20;69.20;;;;;;4809120;29;20059;-74
2021/06/12 08:28:50;;;;;;;10.65;3.40;;;16.20;68.60;;;;;;4823813;29;20050;-71
2021/06/12 08:31:18;;;;;;;9.98;3.85;;;16.20;68.10;;;;;;4810266;29;20378;-74
2021/06/12 08:33:46;;;;;;;10.25;3.53;;;16.30;67.70;;;;;;4834417;29;20485;-71
2021/06/12 08:36:15;;;;;;;6.60;3.10;;;16.30;67.30;;;;;;4813820;29;20051;-70
2021/06/12 08:38:43;;;;;;;9.93;3.53;;;16.40;67.10;;;;;;4824802;29;20469;-72
2021/06/12 08:41:11;;;;;;;8.02;3.30;;;16.40;67.00;;;;;;4808532;29;20366;-74
2021/06/12 08:43:39;;;;;;;6.78;2.60;;;16.30;66.90;;;;;;4810031;29;20046;-72
2021/06/12 08:46:28;;;;;;;7.00;2.10;;;16.40;66.70;;;;;;4822304;29;20051;-73
2021/06/12 08:48:57;;;;;;;4.22;1.80;;;16.50;65.90;;;;;;4822743;29;20063;-73
2021/06/12 08:51:25;;;;;;;8.10;1.88;;;16.50;65.50;;;;;;4809203;29;20055;-73
2021/06/12 08:53:53;;;;;;;5.10;1.55;;;16.50;65.00;;;;;;4809679;29;20069;-71
2021/06/12 08:56:21;;;;;;;5.03;1.77;;;16.50;64.50;;;;;;4808270;29;20065;-73
2021/06/12 08:58:49;;;;;;;10.10;2.00;;;16.60;64.30;;;;;;4809737;29;20054;-74
2021/06/12 09:01:22;;;;;;;5.82;1.60;;;16.60;64.10;;;;;;4808960;29;20059;-75
2021/06/12 09:03:51;;;;;;;8.68;2.00;;;16.60;64.10;;;;;;4809777;29;20074;-73
2021/06/12 09:06:21;;;;;;;8.38;2.22;;;16.70;64.10;;;;;;4809713;29;20043;-74
2021/06/12 09:09:01;;;;;;;6.50;1.73;;;16.80;64.20;;;;;;4808477;29;20426;-70
2021/06/12 09:11:34;;;;;;;6.40;1.80;;;16.80;63.90;;;;;;4809507;29;20066;-71
2021/06/12 09:14:02;;;;;;;;;;;16.90;63.30;;;;;;4809283;29;20058;-75
2021/06/12 09:16:41;;;;;;;7.82;1.67;;;16.90;63.00;;;;;;4822296;29;19932;-74
2021/06/12 09:19:17;;;;;;;4.45;1.50;;;16.90;63.00;;;;;;4808349;29;20067;-72
2021/06/12 09:21:50;;;;;;;6.47;1.58;;;16.90;62.80;;;;;;4804695;29;20071;-70
2021/06/12 09:24:35;;;;;;;7.75;1.52;;;17.00;62.40;;;;;;4811523;29;20059;-66
2021/06/12 09:27:16;;;;;;;6.10;1.48;;;17.00;61.90;;;;;;4808324;29;20055;-69
2021/06/12 09:29:51;;;;;;;6.38;1.65;;;17.10;61.70;;;;;;4806354;29;20057;-66
2021/06/12 09:32:24;;;;;;;7.53;1.70;;;17.10;61.60;;;;;;4807950;29;20066;-68
2021/06/12 09:35:13;;;;;;;7.60;1.70;;;17.20;61.30;;;;;;4808010;29;20064;-68
2021/06/12 09:37:41;;;;;;;6.22;1.65;;;17.30;61.00;;;;;;4808790;29;20074;-68
2021/06/12 09:40:15;;;;;;;6.55;1.30;;;17.20;61.20;;;;;;4809244;29;20050;-69
2021/06/12 09:42:52;;;;;;;6.90;1.63;;;17.30;61.00;;;;;;4807382;29;20065;-68
2021/06/12 09:45:26;;;;;;;2.83;1.05;;;17.30;60.80;;;;;;4823072;29;20055;-66
2021/06/12 09:48:13;;;;;;;6.25;1.55;;;17.50;60.20;;;;;;4808457;29;20059;-67
2021/06/12 09:50:42;;;;;;;3.58;1.17;;;17.50;59.20;;;;;;4809351;29;20055;-66
2021/06/12 09:53:21;;;;;;;3.42;1.40;;;17.70;58.80;;;;;;4808400;29;20071;-67
2021/06/12 09:55:49;;;;;;;4.57;1.50;;;17.80;58.40;;;;;;4807839;29;20058;-67
2021/06/12 09:58:28;;;;;;;6.88;1.30;;;17.80;58.10;;;;;;4808807;29;20063;-67
2021/06/12 10:01:10;;;;;;;4.20;1.30;;;17.70;58.00;;;;;;4823107;29;20062;-68
2021/06/12 10:03:39;;;;;;;5.13;1.45;;;17.70;58.00;;;;;;4809255;29;20486;-68
2021/06/12 10:06:20;;;;;;;7.15;1.25;;;17.70;58.10;;;;;;4838013;29;20051;-67
2021/06/12 10:08:51;;;;;;;4.65;1.83;;;17.70;57.40;;;;;;4806865;29;20394;-68
2021/06/12 10:11:24;;;;;;;4.38;1.27;;;17.70;57.20;;;;;;4808887;29;20066;-68
2021/06/12 10:13:53;;;;;;;4.80;1.23;;;17.80;57.40;;;;;;4808792;29;20069;-68
2021/06/12 10:16:21;;;;;;;8.10;1.40;;;17.80;57.40;;;;;;4808100;29;20488;-68
2021/06/12 10:18:52;;;;;;;3.42;1.30;;;17.80;57.30;;;;;;4807371;29;20070;-66
2021/06/12 10:21:20;;;;;;;5.90;1.50;;;17.80;57.10;;;;;;4807372;29;20074;-68
2021/06/12 10:23:49;;;;;;;6.10;1.55;;;17.80;57.10;;;;;;4808660;29;20066;-68
2021/06/12 10:26:20;;;;;;;5.97;1.20;;;17.80;57.20;;;;;;4808589;29;20382;-66
2021/06/12 10:28:49;;;;;;;4.80;1.27;;;17.80;57.20;;;;;;4807610;29;20074;-66
2021/06/12 10:31:20;;;;;;;3.58;1.20;;;17.80;57.00;;;;;;4808528;29;20065;-68
2021/06/12 10:33:52;;;;;;;5.18;1.25;;;17.90;56.80;;;;;;4807956;29;20406;-67
2021/06/12 10:36:27;;;;;;;4.25;1.38;;;18.00;56.30;;;;;;4821907;29;20067;-68
2021/06/12 10:38:57;;;;;;;6.50;1.50;;;18.00;55.90;;;;;;4808563;29;20059;-66
2021/06/12 10:41:35;;;;;;;5.63;1.58;;;18.10;55.90;;;;;;4807164;29;20082;-68
2021/06/12 10:44:05;;;;;;;6.32;1.40;;;18.20;55.90;;;;;;4808205;29;20054;-68
2021/06/12 10:46:44;;;;;;;4.93;1.42;;;18.30;55.90;;;;;;4808016;29;20057;-65
2021/06/12 10:49:27;;;;;;;5.35;1.13;;;18.40;55.40;;;;;;4806596;29;20362;-67
2021/06/12 10:51:56;;;;;;;4.53;1.40;;;18.50;55.10;;;;;;4807960;29;20073;-66
2021/06/12 10:54:26;;;;;;;4.53;1.40;;;18.50;54.90;;;;;;4807616;29;20481;-66
2021/06/12 10:56:57;;;;;;;4.63;1.23;;;18.60;54.50;;;;;;4808307;29;20390;-67
2021/06/12 10:59:50;;;;;;;3.78;1.13;;;18.70;54.30;;;;;;4809735;29;20065;-68
2021/06/12 11:05:05;;;;;;;4.68;1.67;;;19.00;53.70;;;;;;4826058;29;20059;-67
2021/06/12 11:07:38;;;;;;;5.20;1.60;;;19.10;53.30;;;;;;4826323;29;20065;-67
2021/06/12 11:10:12;;;;;;;5.10;1.50;;;19.10;53.30;;;;;;4839134;29;20489;-67
2021/06/12 11:12:41;;;;;;;4.85;1.58;;;19.10;53.10;;;;;;4807741;29;20086;-67
2021/06/12 11:15:27;;;;;;;4.57;1.20;;;19.10;53.10;;;;;;4836173;29;20477;-68
2021/06/12 11:18:24;;;;;;;4.43;1.38;;;19.10;52.90;;;;;;4808275;29;20055;-68
2021/06/12 11:21:01;;;;;;;3.45;1.20;;;19.20;52.60;;;;;;4807450;29;20063;-68
2021/06/12 11:23:48;;;;;;;7.30;1.60;;;19.30;52.60;;;;;;4807756;29;20059;-66
2021/06/12 11:26:17;;;;;;;3.65;1.20;;;19.30;52.10;;;;;;4807899;29;20051;-66
2021/06/12 11:28:48;;;;;;;5.47;1.30;;;19.30;52.20;;;;;;4807029;29;20058;-67
2021/06/12 11:31:34;;;;;;;5.43;1.50;;;19.30;51.90;;;;;;4807531;29;20073;-68
2021/06/12 11:34:10;;;;;;;5.80;1.30;;;19.40;51.90;;;;;;4807224;29;20063;-66
2021/06/12 11:36:38;;;;;;;3.30;1.20;;;19.60;51.80;;;;;;4807245;29;20072;-68
2021/06/12 11:39:06;;;;;;;3.55;0.93;;;19.60;51.40;;;;;;4807466;29;20485;-66
2021/06/12 11:41:34;;;;;;;3.90;1.40;;;19.60;51.20;;;;;;4806377;29;20055;-68
2021/06/12 11:44:02;;;;;;;4.65;1.27;;;19.60;51.10;;;;;;4822240;29;20062;-66
2021/06/12 11:46:33;;;;;;;4.18;1.17;;;19.80;51.10;;;;;;4807735;29;20070;-68
2021/06/12 11:49:08;;;;;;;6.75;1.48;;;19.90;50.90;;;;;;4820636;29;20062;-68
2021/06/12 11:51:42;;;;;;;6.28;1.50;;;20.10;50.60;;;;;;4806832;29;20058;-68
2021/06/12 11:54:15;;;;;;;3.78;1.27;;;20.20;50.60;;;;;;4808391;29;20058;-68
2021/06/12 11:56:53;;;;;;;5.57;1.67;;;20.30;49.90;;;;;;4806973;29;20063;-66
2021/06/12 11:59:23;;;;;;;4.15;1.20;;;20.50;49.40;;;;;;4806838;29;20390;-66
2021/06/12 12:02:00;;;;;;;3.83;1.10;;;20.50;49.40;;;;;;4806523;29;20380;-68
2021/06/12 12:04:34;;;;;;;6.45;1.33;;;20.50;49.20;;;;;;4821824;29;20382;-67
2021/06/12 12:07:05;;;;;;;6.35;1.42;;;20.60;49.00;;;;;;4807098;29;20070;-68
2021/06/12 12:09:35;;;;;;;3.15;1.58;;;20.70;48.90;;;;;;4806478;29;20070;-69
2021/06/12 12:12:10;;;;;;;3.95;1.80;;;20.80;49.00;;;;;;4821398;29;20066;-68
2021/06/12 12:14:44;;;;;;;4.35;1.42;;;20.90;48.70;;;;;;4806961;29;20070;-68
2021/06/12 12:17:26;;;;;;;6.55;1.77;;;21.00;48.60;;;;;;4810586;29;20063;-66
2021/06/12 12:19:55;;;;;;;7.72;1.40;;;21.00;48.20;;;;;;4811092;29;20496;-67
2021/06/12 12:22:48;;;;;;;6.88;1.80;;;21.00;47.90;;;;;;4809424;29;20059;-67
2021/06/12 12:25:24;;;;;;;6.30;1.60;;;20.90;47.60;;;;;;4809810;29;20067;-68
2021/06/12 12:28:09;;;;;;;7.63;1.63;;;20.90;47.70;;;;;;4809389;29;20458;-66
2021/06/12 12:30:37;;;;;;;7.35;1.50;;;21.00;47.60;;;;;;4810472;29;20081;-67
2021/06/12 12:33:19;;;;;;;4.13;1.80;;;21.00;47.20;;;;;;4839910;29;20051;-69
2021/06/12 12:35:48;;;;;;;5.57;1.77;;;21.00;47.30;;;;;;4808671;29;20481;-68
2021/06/12 12:38:19;;;;;;;6.65;1.67;;;21.10;47.50;;;;;;4810712;29;20066;-68
2021/06/12 12:40:49;;;;;;;6.55;1.83;;;21.20;47.60;;;;;;4824653;29;20070;-69
2021/06/12 12:43:18;;;;;;;4.47;1.40;;;21.30;47.50;;;;;;4809477;29;20061;-68
2021/06/12 12:45:48;;;;;;;8.00;1.77;;;21.40;47.30;;;;;;4824227;29;20470;-68
2021/06/12 12:48:18;;;;;;;9.98;2.05;;;21.50;47.40;;;;;;4809423;29;20062;-67
2021/06/12 12:50:47;;;;;;;11.10;2.03;;;21.50;47.30;;;;;;4810212;29;20059;-66
2021/06/12 12:53:20;;;;;;;6.03;2.00;;;21.60;47.30;;;;;;4810043;29;20504;-68
2021/06/12 12:56:07;;;;;;;7.07;2.13;;;21.70;47.50;;;;;;4809538;29;20066;-69
2021/06/12 12:58:36;;;;;;;5.47;1.80;;;21.70;47.40;;;;;;4839589;29;20074;-67
2021/06/12 13:01:08;;;;;;;4.50;1.92;;;21.80;47.50;;;;;;4824105;29;20062;-69
2021/06/12 13:03:51;;;;;;;7.00;2.20;;;21.80;47.10;;;;;;4826989;29;20066;-68